sensor_id;sensor_type;location;lat;lon;timestamp;temperature;humidity
13268;DHT22;6702;47.068;15.458;2022-10-13T00:02:03;14.90;99.90
13268;DHT22;6702;47.068;15.458;2022-10-13T00:05:07;14.80;99.90
13268;DHT22;6702;47.068;15.458;2022-10-13T00:08:11;14.80;99.90
13268;DHT22;6702;47.068;15.458;2022-10-13T00:11:18;14.70;99.90
13268;DHT22;6702;47.068;15.458;2022-10-13T00:14:21;14.60;99.90
13268;DHT22;6702;47.068;15.458;2022-10-13T00:17:26;14.60;99.90
13268;DHT22;6702;47.068;15.458;2022-10-13T00:20:29;14.60;99.90
13268;DHT22;6702;47.068;15.458;2022-10-13T00:23:33;14.60;99.90
13268;DHT22;6702;47.068;15.458;2022-10-13T00:26:36;14.50;99.90
13268;DHT22;6702;47.068;15.458;2022-10-13T00:29:40;14.50;99.90
13268;DHT22;6702;47.068;15.458;2022-10-13T00:32:44;14.50;99.90
13268;DHT22;6702;47.068;15.458;2022-10-13T00:35:48;14.50;99.90
13268;DHT22;6702;47.068;15.458;2022-10-13T00:38:53;14.40;99.90
13268;DHT22;6702;47.068;15.458;2022-10-13T00:41:56;14.40;99.90
13268;DHT22;6702;47.068;15.458;2022-10-13T00:45:06;14.40;99.90
13268;DHT22;6702;47.068;15.458;2022-10-13T00:48:11;14.30;99.90
13268;DHT22;6702;47.068;15.458;2022-10-13T00:51:18;14.20;99.90
13268;DHT22;6702;47.068;15.458;2022-10-13T00:54:23;14.20;99.90
13268;DHT22;6702;47.068;15.458;2022-10-13T00:57:27;14.10;99.90
13268;DHT22;6702;47.068;15.458;2022-10-13T01:00:31;14.10;99.90
13268;DHT22;6702;47.068;15.458;2022-10-13T01:03:36;14.10;99.90
13268;DHT22;6702;47.068;15.458;2022-10-13T01:06:40;14.10;99.90
13268;DHT22;6702;47.068;15.458;2022-10-13T01:09:43;14.10;99.90
13268;DHT22;6702;47.068;15.458;2022-10-13T01:12:54;14.10;99.90
13268;DHT22;6702;47.068;15.458;2022-10-13T01:16:02;14.00;99.90
13268;DHT22;6702;47.068;15.458;2022-10-13T01:19:24;14.00;99.90
13268;DHT22;6702;47.068;15.458;2022-10-13T01:22:43;13.90;99.90
13268;DHT22;6702;47.068;15.458;2022-10-13T01:26:06;13.90;99.90
13268;DHT22;6702;47.068;15.458;2022-10-13T01:29:23;13.80;99.90
13268;DHT22;6702;47.068;15.458;2022-10-13T01:32:40;13.80;99.90
13268;DHT22;6702;47.068;15.458;2022-10-13T01:35:55;13.90;99.90
13268;DHT22;6702;47.068;15.458;2022-10-13T01:39:06;13.90;99.90
13268;DHT22;6702;47.068;15.458;2022-10-13T01:42:14;13.80;99.90
13268;DHT22;6702;47.068;15.458;2022-10-13T01:45:22;13.80;99.90
13268;DHT22;6702;47.068;15.458;2022-10-13T01:48:28;13.80;99.90
13268;DHT22;6702;47.068;15.458;2022-10-13T01:51:33;13.80;99.90
13268;DHT22;6702;47.068;15.458;2022-10-13T01:54:37;13.80;99.90
13268;DHT22;6702;47.068;15.458;2022-10-13T01:57:42;13.70;99.90
13268;DHT22;6702;47.068;15.458;2022-10-13T02:00:57;13.70;99.90
13268;DHT22;6702;47.068;15.458;2022-10-13T02:04:11;13.60;99.90
13268;DHT22;6702;47.068;15.458;2022-10-13T02:07:19;13.60;99.90
13268;DHT22;6702;47.068;15.458;2022-10-13T02:10:29;13.50;99.90
13268;DHT22;6702;47.068;15.458;2022-10-13T02:13:35;13.50;99.90
13268;DHT22;6702;47.068;15.458;2022-10-13T02:16:42;13.50;99.90
13268;DHT22;6702;47.068;15.458;2022-10-13T02:19:47;13.50;99.90
13268;DHT22;6702;47.068;15.458;2022-10-13T02:22:54;13.50;99.90
13268;DHT22;6702;47.068;15.458;2022-10-13T02:25:59;13.40;99.90
13268;DHT22;6702;47.068;15.458;2022-10-13T02:29:07;13.40;99.90
13268;DHT22;6702;47.068;15.458;2022-10-13T02:32:11;13.40;99.90
13268;DHT22;6702;47.068;15.458;2022-10-13T02:35:15;13.40;99.90
13268;DHT22;6702;47.068;15.458;2022-10-13T02:38:18;13.30;99.90
13268;DHT22;6702;47.068;15.458;2022-10-13T02:41:22;13.30;99.90
13268;DHT22;6702;47.068;15.458;2022-10-13T02:44:25;13.30;99.90
13268;DHT22;6702;47.068;15.458;2022-10-13T02:47:28;13.30;99.90
13268;DHT22;6702;47.068;15.458;2022-10-13T02:50:33;13.20;99.90
13268;DHT22;6702;47.068;15.458;2022-10-13T02:53:36;13.20;99.90
13268;DHT22;6702;47.068;15.458;2022-10-13T02:56:39;13.10;99.90
13268;DHT22;6702;47.068;15.458;2022-10-13T02:59:42;13.10;99.90
13268;DHT22;6702;47.068;15.458;2022-10-13T03:02:45;13.10;99.90
13268;DHT22;6702;47.068;15.458;2022-10-13T03:05:50;13.10;99.90
13268;DHT22;6702;47.068;15.458;2022-10-13T03:08:53;13.00;99.90
13268;DHT22;6702;47.068;15.458;2022-10-13T03:11:57;13.00;99.90
13268;DHT22;6702;47.068;15.458;2022-10-13T03:15:00;12.90;99.90
13268;DHT22;6702;47.068;15.458;2022-10-13T03:18:04;13.00;99.90
13268;DHT22;6702;47.068;15.458;2022-10-13T03:21:09;12.90;99.90
13268;DHT22;6702;47.068;15.458;2022-10-13T03:24:12;12.90;99.90
13268;DHT22;6702;47.068;15.458;2022-10-13T03:27:15;12.90;99.90
13268;DHT22;6702;47.068;15.458;2022-10-13T03:30:18;12.90;99.90
13268;DHT22;6702;47.068;15.458;2022-10-13T03:33:22;12.90;99.90
13268;DHT22;6702;47.068;15.458;2022-10-13T03:36:26;12.80;99.90
13268;DHT22;6702;47.068;15.458;2022-10-13T03:39:30;12.80;99.90
13268;DHT22;6702;47.068;15.458;2022-10-13T03:42:34;12.80;99.90
13268;DHT22;6702;47.068;15.458;2022-10-13T03:45:37;12.70;99.90
13268;DHT22;6702;47.068;15.458;2022-10-13T03:48:41;12.70;99.90
13268;DHT22;6702;47.068;15.458;2022-10-13T03:51:45;12.70;99.90
13268;DHT22;6702;47.068;15.458;2022-10-13T03:54:48;12.70;99.90
13268;DHT22;6702;47.068;15.458;2022-10-13T03:57:51;12.60;99.90
13268;DHT22;6702;47.068;15.458;2022-10-13T04:00:55;12.60;99.90
13268;DHT22;6702;47.068;15.458;2022-10-13T04:04:01;12.60;99.90
13268;DHT22;6702;47.068;15.458;2022-10-13T04:07:06;12.60;99.90
13268;DHT22;6702;47.068;15.458;2022-10-13T04:10:09;12.60;99.90
13268;DHT22;6702;47.068;15.458;2022-10-13T04:13:12;12.50;99.90
13268;DHT22;6702;47.068;15.458;2022-10-13T04:16:18;12.50;99.90
13268;DHT22;6702;47.068;15.458;2022-10-13T04:19:22;12.50;99.90
13268;DHT22;6702;47.068;15.458;2022-10-13T04:22:26;12.40;99.90
13268;DHT22;6702;47.068;15.458;2022-10-13T04:25:30;12.40;99.90
13268;DHT22;6702;47.068;15.458;2022-10-13T04:28:33;12.40;99.90
13268;DHT22;6702;47.068;15.458;2022-10-13T04:31:37;12.40;99.90
13268;DHT22;6702;47.068;15.458;2022-10-13T04:34:41;12.40;99.90
13268;DHT22;6702;47.068;15.458;2022-10-13T04:37:45;12.30;99.90
13268;DHT22;6702;47.068;15.458;2022-10-13T04:40:49;12.30;99.90
13268;DHT22;6702;47.068;15.458;2022-10-13T04:43:52;12.30;99.90
13268;DHT22;6702;47.068;15.458;2022-10-13T04:46:56;12.30;99.90
13268;DHT22;6702;47.068;15.458;2022-10-13T04:50:02;12.20;99.90
13268;DHT22;6702;47.068;15.458;2022-10-13T04:53:06;12.20;99.90
13268;DHT22;6702;47.068;15.458;2022-10-13T04:56:11;12.30;99.90
13268;DHT22;6702;47.068;15.458;2022-10-13T04:59:15;12.20;99.90
13268;DHT22;6702;47.068;15.458;2022-10-13T05:02:19;12.20;99.90
13268;DHT22;6702;47.068;15.458;2022-10-13T05:05:22;12.20;99.90
13268;DHT22;6702;47.068;15.458;2022-10-13T05:08:27;12.20;99.90
13268;DHT22;6702;47.068;15.458;2022-10-13T05:11:31;12.10;99.90
13268;DHT22;6702;47.068;15.458;2022-10-13T05:14:34;12.10;99.90
13268;DHT22;6702;47.068;15.458;2022-10-13T05:17:38;12.10;99.90
13268;DHT22;6702;47.068;15.458;2022-10-13T05:20:41;12.00;99.90
13268;DHT22;6702;47.068;15.458;2022-10-13T05:23:45;12.00;99.90
13268;DHT22;6702;47.068;15.458;2022-10-13T05:26:49;12.00;99.90
13268;DHT22;6702;47.068;15.458;2022-10-13T05:29:52;12.00;99.90
13268;DHT22;6702;47.068;15.458;2022-10-13T05:32:56;12.00;99.90
13268;DHT22;6702;47.068;15.458;2022-10-13T05:36:03;12.10;99.90
13268;DHT22;6702;47.068;15.458;2022-10-13T05:39:09;12.10;99.90
13268;DHT22;6702;47.068;15.458;2022-10-13T05:42:12;12.10;99.90
13268;DHT22;6702;47.068;15.458;2022-10-13T05:45:16;12.10;99.90
13268;DHT22;6702;47.068;15.458;2022-10-13T05:48:20;12.10;99.90
13268;DHT22;6702;47.068;15.458;2022-10-13T05:51:24;12.20;99.90
13268;DHT22;6702;47.068;15.458;2022-10-13T05:54:33;12.20;99.90
13268;DHT22;6702;47.068;15.458;2022-10-13T05:57:39;12.30;99.90
13268;DHT22;6702;47.068;15.458;2022-10-13T06:00:44;12.30;99.90
13268;DHT22;6702;47.068;15.458;2022-10-13T06:03:49;12.40;99.90
13268;DHT22;6702;47.068;15.458;2022-10-13T06:06:54;12.40;99.90
13268;DHT22;6702;47.068;15.458;2022-10-13T06:10:00;12.50;99.90
13268;DHT22;6702;47.068;15.458;2022-10-13T06:13:03;12.60;99.90
13268;DHT22;6702;47.068;15.458;2022-10-13T06:16:06;12.60;99.90
13268;DHT22;6702;47.068;15.458;2022-10-13T06:19:10;12.70;99.90
13268;DHT22;6702;47.068;15.458;2022-10-13T06:22:13;12.80;99.90
13268;DHT22;6702;47.068;15.458;2022-10-13T06:25:18;12.80;99.90
13268;DHT22;6702;47.068;15.458;2022-10-13T06:28:21;12.80;99.90
13268;DHT22;6702;47.068;15.458;2022-10-13T06:31:24;12.80;99.90
13268;DHT22;6702;47.068;15.458;2022-10-13T06:34:28;12.90;99.90
13268;DHT22;6702;47.068;15.458;2022-10-13T06:37:31;13.00;99.90
13268;DHT22;6702;47.068;15.458;2022-10-13T06:40:36;13.10;99.90
13268;DHT22;6702;47.068;15.458;2022-10-13T06:43:39;13.30;99.90
13268;DHT22;6702;47.068;15.458;2022-10-13T06:46:42;13.40;99.90
13268;DHT22;6702;47.068;15.458;2022-10-13T06:49:46;13.60;99.90
13268;DHT22;6702;47.068;15.458;2022-10-13T06:52:49;13.70;99.90
13268;DHT22;6702;47.068;15.458;2022-10-13T06:55:56;13.90;99.90
13268;DHT22;6702;47.068;15.458;2022-10-13T06:59:00;14.00;99.90
13268;DHT22;6702;47.068;15.458;2022-10-13T07:02:03;14.10;99.90
13268;DHT22;6702;47.068;15.458;2022-10-13T07:05:07;14.20;99.90
13268;DHT22;6702;47.068;15.458;2022-10-13T07:08:10;14.40;99.90
13268;DHT22;6702;47.068;15.458;2022-10-13T07:11:15;14.50;99.90
13268;DHT22;6702;47.068;15.458;2022-10-13T07:14:19;14.60;99.90
13268;DHT22;6702;47.068;15.458;2022-10-13T07:17:22;14.70;99.90
13268;DHT22;6702;47.068;15.458;2022-10-13T07:20:26;14.80;99.90
13268;DHT22;6702;47.068;15.458;2022-10-13T07:23:29;14.80;99.90
13268;DHT22;6702;47.068;15.458;2022-10-13T07:26:34;15.00;99.90
13268;DHT22;6702;47.068;15.458;2022-10-13T07:29:37;15.10;99.90
13268;DHT22;6702;47.068;15.458;2022-10-13T07:32:41;15.20;99.90
13268;DHT22;6702;47.068;15.458;2022-10-13T07:35:44;15.20;99.90
13268;DHT22;6702;47.068;15.458;2022-10-13T07:38:47;15.30;99.90
13268;DHT22;6702;47.068;15.458;2022-10-13T07:41:52;15.50;99.90
13268;DHT22;6702;47.068;15.458;2022-10-13T07:44:55;15.60;99.90
13268;DHT22;6702;47.068;15.458;2022-10-13T07:47:58;15.70;99.90
13268;DHT22;6702;47.068;15.458;2022-10-13T07:51:06;15.80;99.90
13268;DHT22;6702;47.068;15.458;2022-10-13T07:54:09;16.00;99.90
13268;DHT22;6702;47.068;15.458;2022-10-13T07:57:14;16.20;99.90
13268;DHT22;6702;47.068;15.458;2022-10-13T08:00:18;16.50;99.90
13268;DHT22;6702;47.068;15.458;2022-10-13T08:03:21;16.70;99.90
13268;DHT22;6702;47.068;15.458;2022-10-13T08:06:24;17.00;99.90
13268;DHT22;6702;47.068;15.458;2022-10-13T08:09:28;17.40;99.90
13268;DHT22;6702;47.068;15.458;2022-10-13T08:12:33;18.80;99.90
13268;DHT22;6702;47.068;15.458;2022-10-13T08:15:38;22.30;99.50
13268;DHT22;6702;47.068;15.458;2022-10-13T08:18:42;25.80;91.60
13268;DHT22;6702;47.068;15.458;2022-10-13T08:21:45;28.20;73.60
13268;DHT22;6702;47.068;15.458;2022-10-13T08:25:09;30.00;59.60
13268;DHT22;6702;47.068;15.458;2022-10-13T08:28:17;32.20;53.80
13268;DHT22;6702;47.068;15.458;2022-10-13T08:31:21;33.50;47.10
13268;DHT22;6702;47.068;15.458;2022-10-13T08:34:25;34.90;43.30
13268;DHT22;6702;47.068;15.458;2022-10-13T08:37:28;36.10;39.10
13268;DHT22;6702;47.068;15.458;2022-10-13T08:40:31;37.10;37.70
13268;DHT22;6702;47.068;15.458;2022-10-13T08:43:36;38.00;34.70
13268;DHT22;6702;47.068;15.458;2022-10-13T08:47:04;38.70;33.00
13268;DHT22;6702;47.068;15.458;2022-10-13T08:50:13;39.10;31.70
13268;DHT22;6702;47.068;15.458;2022-10-13T08:53:24;39.40;30.70
13268;DHT22;6702;47.068;15.458;2022-10-13T08:56:31;40.00;29.90
13268;DHT22;6702;47.068;15.458;2022-10-13T08:59:37;40.70;29.10
13268;DHT22;6702;47.068;15.458;2022-10-13T09:02:42;40.80;28.60
13268;DHT22;6702;47.068;15.458;2022-10-13T09:06:02;41.60;28.40
13268;DHT22;6702;47.068;15.458;2022-10-13T09:09:10;42.00;27.00
13268;DHT22;6702;47.068;15.458;2022-10-13T09:12:14;41.80;26.90
13268;DHT22;6702;47.068;15.458;2022-10-13T09:15:20;42.30;26.80
13268;DHT22;6702;47.068;15.458;2022-10-13T09:18:27;43.00;26.10
13268;DHT22;6702;47.068;15.458;2022-10-13T09:21:31;43.50;25.70
13268;DHT22;6702;47.068;15.458;2022-10-13T09:24:35;44.00;25.00
13268;DHT22;6702;47.068;15.458;2022-10-13T09:27:44;43.90;25.10
13268;DHT22;6702;47.068;15.458;2022-10-13T09:31:00;44.30;24.20
13268;DHT22;6702;47.068;15.458;2022-10-13T09:34:13;44.10;24.40
13268;DHT22;6702;47.068;15.458;2022-10-13T09:37:19;44.30;24.10
13268;DHT22;6702;47.068;15.458;2022-10-13T09:40:22;44.80;24.10
13268;DHT22;6702;47.068;15.458;2022-10-13T09:43:29;44.50;24.00
13268;DHT22;6702;47.068;15.458;2022-10-13T09:46:37;45.20;23.60
13268;DHT22;6702;47.068;15.458;2022-10-13T09:49:42;45.10;23.30
13268;DHT22;6702;47.068;15.458;2022-10-13T09:52:46;45.30;23.20
13268;DHT22;6702;47.068;15.458;2022-10-13T09:56:06;45.10;23.50
13268;DHT22;6702;47.068;15.458;2022-10-13T09:59:18;45.10;23.30
13268;DHT22;6702;47.068;15.458;2022-10-13T10:02:30;46.30;22.60
13268;DHT22;6702;47.068;15.458;2022-10-13T10:05:40;46.90;22.10
13268;DHT22;6702;47.068;15.458;2022-10-13T10:08:52;46.90;21.90
13268;DHT22;6702;47.068;15.458;2022-10-13T10:12:09;47.10;22.00
13268;DHT22;6702;47.068;15.458;2022-10-13T10:15:19;46.40;21.90
13268;DHT22;6702;47.068;15.458;2022-10-13T10:18:30;46.10;22.30
13268;DHT22;6702;47.068;15.458;2022-10-13T10:21:41;47.20;22.10
13268;DHT22;6702;47.068;15.458;2022-10-13T10:24:52;47.50;21.20
13268;DHT22;6702;47.068;15.458;2022-10-13T10:28:34;45.20;22.50
13268;DHT22;6702;47.068;15.458;2022-10-13T10:31:49;44.50;23.00
13268;DHT22;6702;47.068;15.458;2022-10-13T10:35:00;45.80;22.40
13268;DHT22;6702;47.068;15.458;2022-10-13T10:38:19;46.10;21.70
13268;DHT22;6702;47.068;15.458;2022-10-13T10:41:37;46.40;21.50
13268;DHT22;6702;47.068;15.458;2022-10-13T10:44:42;47.00;21.40
13268;DHT22;6702;47.068;15.458;2022-10-13T10:47:51;46.90;21.20
13268;DHT22;6702;47.068;15.458;2022-10-13T10:50:58;46.50;21.60
13268;DHT22;6702;47.068;15.458;2022-10-13T10:54:11;45.30;22.10
13268;DHT22;6702;47.068;15.458;2022-10-13T10:57:21;44.00;23.30
13268;DHT22;6702;47.068;15.458;2022-10-13T11:00:27;45.20;22.50
13268;DHT22;6702;47.068;15.458;2022-10-13T11:03:39;46.10;22.20
13268;DHT22;6702;47.068;15.458;2022-10-13T11:06:45;44.90;22.10
13268;DHT22;6702;47.068;15.458;2022-10-13T11:10:15;44.00;22.80
13268;DHT22;6702;47.068;15.458;2022-10-13T11:13:21;44.20;22.80
13268;DHT22;6702;47.068;15.458;2022-10-13T11:16:28;44.70;22.30
13268;DHT22;6702;47.068;15.458;2022-10-13T11:19:33;44.90;21.90
13268;DHT22;6702;47.068;15.458;2022-10-13T11:22:38;43.70;23.10
13268;DHT22;6702;47.068;15.458;2022-10-13T11:25:42;42.70;23.40
13268;DHT22;6702;47.068;15.458;2022-10-13T11:28:46;42.30;24.10
13268;DHT22;6702;47.068;15.458;2022-10-13T11:31:52;42.50;23.70
13268;DHT22;6702;47.068;15.458;2022-10-13T11:34:56;42.40;23.80
13268;DHT22;6702;47.068;15.458;2022-10-13T11:38:22;43.00;23.40
13268;DHT22;6702;47.068;15.458;2022-10-13T11:41:33;44.30;22.30
13268;DHT22;6702;47.068;15.458;2022-10-13T11:44:47;42.90;22.70
13268;DHT22;6702;47.068;15.458;2022-10-13T11:51:54;41.30;24.00
13268;DHT22;6702;47.068;15.458;2022-10-13T11:55:04;41.70;23.50
13268;DHT22;6702;47.068;15.458;2022-10-13T11:58:15;41.60;23.80
13268;DHT22;6702;47.068;15.458;2022-10-13T12:01:18;42.80;23.20
13268;DHT22;6702;47.068;15.458;2022-10-13T12:04:23;44.20;22.00
13268;DHT22;6702;47.068;15.458;2022-10-13T12:07:32;42.90;23.10
13268;DHT22;6702;47.068;15.458;2022-10-13T12:10:38;44.70;21.90
13268;DHT22;6702;47.068;15.458;2022-10-13T12:13:45;45.00;21.40
13268;DHT22;6702;47.068;15.458;2022-10-13T12:16:52;44.80;21.60
13268;DHT22;6702;47.068;15.458;2022-10-13T12:19:58;45.40;21.00
13268;DHT22;6702;47.068;15.458;2022-10-13T12:23:01;46.70;20.50
13268;DHT22;6702;47.068;15.458;2022-10-13T12:26:06;43.40;21.90
13268;DHT22;6702;47.068;15.458;2022-10-13T12:29:12;43.90;21.70
13268;DHT22;6702;47.068;15.458;2022-10-13T12:32:18;44.30;21.90
13268;DHT22;6702;47.068;15.458;2022-10-13T12:35:24;45.30;21.10
13268;DHT22;6702;47.068;15.458;2022-10-13T12:38:27;44.30;21.60
13268;DHT22;6702;47.068;15.458;2022-10-13T12:41:34;44.70;21.70
13268;DHT22;6702;47.068;15.458;2022-10-13T12:44:38;46.10;20.90
13268;DHT22;6702;47.068;15.458;2022-10-13T12:47:49;46.00;20.90
13268;DHT22;6702;47.068;15.458;2022-10-13T12:50:53;46.30;20.40
13268;DHT22;6702;47.068;15.458;2022-10-13T12:53:56;45.80;20.90
13268;DHT22;6702;47.068;15.458;2022-10-13T12:57:03;45.20;21.10
13268;DHT22;6702;47.068;15.458;2022-10-13T13:00:20;44.10;21.50
13268;DHT22;6702;47.068;15.458;2022-10-13T13:03:26;44.00;21.80
13268;DHT22;6702;47.068;15.458;2022-10-13T13:06:33;44.30;21.50
13268;DHT22;6702;47.068;15.458;2022-10-13T13:09:36;44.50;21.70
13268;DHT22;6702;47.068;15.458;2022-10-13T13:12:44;43.30;22.00
13268;DHT22;6702;47.068;15.458;2022-10-13T13:15:49;41.30;23.40
13268;DHT22;6702;47.068;15.458;2022-10-13T13:18:53;41.00;23.80
13268;DHT22;6702;47.068;15.458;2022-10-13T13:21:56;41.50;23.70
13268;DHT22;6702;47.068;15.458;2022-10-13T13:24:59;41.20;23.80
13268;DHT22;6702;47.068;15.458;2022-10-13T13:28:09;41.10;24.00
13268;DHT22;6702;47.068;15.458;2022-10-13T13:31:15;40.30;24.50
13268;DHT22;6702;47.068;15.458;2022-10-13T13:34:19;39.50;25.30
13268;DHT22;6702;47.068;15.458;2022-10-13T13:37:29;38.10;26.00
13268;DHT22;6702;47.068;15.458;2022-10-13T13:40:32;35.80;28.40
13268;DHT22;6702;47.068;15.458;2022-10-13T13:43:37;33.00;30.90
13268;DHT22;6702;47.068;15.458;2022-10-13T13:46:41;30.50;35.10
13268;DHT22;6702;47.068;15.458;2022-10-13T13:49:44;29.40;37.70
13268;DHT22;6702;47.068;15.458;2022-10-13T13:52:48;28.00;40.30
13268;DHT22;6702;47.068;15.458;2022-10-13T13:55:51;26.90;43.00
13268;DHT22;6702;47.068;15.458;2022-10-13T13:58:55;25.70;45.40
13268;DHT22;6702;47.068;15.458;2022-10-13T14:01:58;25.10;47.10
13268;DHT22;6702;47.068;15.458;2022-10-13T14:05:02;24.50;48.10
13268;DHT22;6702;47.068;15.458;2022-10-13T14:08:06;24.10;49.40
13268;DHT22;6702;47.068;15.458;2022-10-13T14:11:09;23.80;50.10
13268;DHT22;6702;47.068;15.458;2022-10-13T14:14:14;23.50;50.80
13268;DHT22;6702;47.068;15.458;2022-10-13T14:17:17;23.40;51.30
13268;DHT22;6702;47.068;15.458;2022-10-13T14:20:21;23.30;51.70
13268;DHT22;6702;47.068;15.458;2022-10-13T14:23:24;23.00;52.80
13268;DHT22;6702;47.068;15.458;2022-10-13T14:26:27;22.80;53.90
13268;DHT22;6702;47.068;15.458;2022-10-13T14:29:32;22.70;54.70
13268;DHT22;6702;47.068;15.458;2022-10-13T14:32:35;22.70;55.40
13268;DHT22;6702;47.068;15.458;2022-10-13T14:35:39;22.60;56.10
13268;DHT22;6702;47.068;15.458;2022-10-13T14:38:42;22.40;57.20
13268;DHT22;6702;47.068;15.458;2022-10-13T14:41:45;22.20;58.00
13268;DHT22;6702;47.068;15.458;2022-10-13T14:44:50;22.00;59.00
13268;DHT22;6702;47.068;15.458;2022-10-13T14:47:53;21.60;60.70
13268;DHT22;6702;47.068;15.458;2022-10-13T14:54:13;21.40;62.50
13268;DHT22;6702;47.068;15.458;2022-10-13T14:57:16;21.30;63.60
13268;DHT22;6702;47.068;15.458;2022-10-13T15:00:22;21.30;64.60
13268;DHT22;6702;47.068;15.458;2022-10-13T15:03:25;21.10;65.70
13268;DHT22;6702;47.068;15.458;2022-10-13T15:06:30;20.90;67.20
13268;DHT22;6702;47.068;15.458;2022-10-13T15:09:33;20.90;68.20
13268;DHT22;6702;47.068;15.458;2022-10-13T15:12:54;20.80;69.80
13268;DHT22;6702;47.068;15.458;2022-10-13T15:15:58;20.70;71.10
13268;DHT22;6702;47.068;15.458;2022-10-13T15:19:02;20.60;72.30
13268;DHT22;6702;47.068;15.458;2022-10-13T15:22:05;20.60;73.30
13268;DHT22;6702;47.068;15.458;2022-10-13T15:25:08;20.60;74.10
13268;DHT22;6702;47.068;15.458;2022-10-13T15:28:12;20.60;75.10
13268;DHT22;6702;47.068;15.458;2022-10-13T15:31:18;20.50;75.80
13268;DHT22;6702;47.068;15.458;2022-10-13T15:34:21;20.50;76.60
13268;DHT22;6702;47.068;15.458;2022-10-13T15:37:24;20.40;77.60
13268;DHT22;6702;47.068;15.458;2022-10-13T15:40:27;20.30;78.40
13268;DHT22;6702;47.068;15.458;2022-10-13T15:43:34;20.30;79.40
13268;DHT22;6702;47.068;15.458;2022-10-13T15:46:39;20.20;80.10
13268;DHT22;6702;47.068;15.458;2022-10-13T15:50:02;20.10;81.40
13268;DHT22;6702;47.068;15.458;2022-10-13T15:53:06;20.00;83.20
13268;DHT22;6702;47.068;15.458;2022-10-13T15:56:09;19.90;83.40
13268;DHT22;6702;47.068;15.458;2022-10-13T15:59:12;19.80;84.60
13268;DHT22;6702;47.068;15.458;2022-10-13T16:02:17;19.70;85.50
13268;DHT22;6702;47.068;15.458;2022-10-13T16:05:20;19.60;86.70
13268;DHT22;6702;47.068;15.458;2022-10-13T16:08:24;19.50;88.10
13268;DHT22;6702;47.068;15.458;2022-10-13T16:11:27;19.40;89.10
13268;DHT22;6702;47.068;15.458;2022-10-13T16:14:30;19.30;90.00
13268;DHT22;6702;47.068;15.458;2022-10-13T16:17:35;19.20;90.70
13268;DHT22;6702;47.068;15.458;2022-10-13T16:20:38;19.10;91.40
13268;DHT22;6702;47.068;15.458;2022-10-13T16:23:46;19.00;92.00
13268;DHT22;6702;47.068;15.458;2022-10-13T16:26:49;18.90;92.90
13268;DHT22;6702;47.068;15.458;2022-10-13T16:29:52;18.80;93.50
13268;DHT22;6702;47.068;15.458;2022-10-13T16:32:57;18.70;94.30
13268;DHT22;6702;47.068;15.458;2022-10-13T16:36:05;18.70;94.90
13268;DHT22;6702;47.068;15.458;2022-10-13T16:39:08;18.60;95.20
13268;DHT22;6702;47.068;15.458;2022-10-13T16:42:11;18.70;95.50
13268;DHT22;6702;47.068;15.458;2022-10-13T16:45:14;18.70;95.70
13268;DHT22;6702;47.068;15.458;2022-10-13T16:48:19;18.70;96.00
13268;DHT22;6702;47.068;15.458;2022-10-13T16:51:23;18.60;96.20
13268;DHT22;6702;47.068;15.458;2022-10-13T16:54:26;18.60;96.40
13268;DHT22;6702;47.068;15.458;2022-10-13T16:57:30;18.50;96.70
13268;DHT22;6702;47.068;15.458;2022-10-13T17:00:34;18.50;97.10
13268;DHT22;6702;47.068;15.458;2022-10-13T17:03:41;18.50;97.30
13268;DHT22;6702;47.068;15.458;2022-10-13T17:06:45;18.60;97.60
13268;DHT22;6702;47.068;15.458;2022-10-13T17:09:48;18.50;97.70
13268;DHT22;6702;47.068;15.458;2022-10-13T17:12:52;18.50;97.70
13268;DHT22;6702;47.068;15.458;2022-10-13T17:15:56;18.50;98.00
13268;DHT22;6702;47.068;15.458;2022-10-13T17:19:01;18.40;98.10
13268;DHT22;6702;47.068;15.458;2022-10-13T17:22:05;18.40;98.30
13268;DHT22;6702;47.068;15.458;2022-10-13T17:25:10;18.30;98.50
13268;DHT22;6702;47.068;15.458;2022-10-13T17:28:15;18.20;98.70
13268;DHT22;6702;47.068;15.458;2022-10-13T17:31:20;18.20;99.10
13268;DHT22;6702;47.068;15.458;2022-10-13T17:34:25;18.10;99.30
13268;DHT22;6702;47.068;15.458;2022-10-13T17:37:30;18.00;99.70
13268;DHT22;6702;47.068;15.458;2022-10-13T17:40:34;17.90;99.90
13268;DHT22;6702;47.068;15.458;2022-10-13T17:43:39;17.90;99.90
13268;DHT22;6702;47.068;15.458;2022-10-13T17:46:47;17.90;99.90
13268;DHT22;6702;47.068;15.458;2022-10-13T17:49:53;17.80;99.90
13268;DHT22;6702;47.068;15.458;2022-10-13T17:52:58;17.70;99.90
13268;DHT22;6702;47.068;15.458;2022-10-13T17:56:04;17.70;99.90
13268;DHT22;6702;47.068;15.458;2022-10-13T17:59:08;17.60;99.90
13268;DHT22;6702;47.068;15.458;2022-10-13T18:02:15;17.50;99.90
13268;DHT22;6702;47.068;15.458;2022-10-13T18:05:21;17.50;99.90
13268;DHT22;6702;47.068;15.458;2022-10-13T18:08:25;17.40;99.90
13268;DHT22;6702;47.068;15.458;2022-10-13T18:11:29;17.40;99.90
13268;DHT22;6702;47.068;15.458;2022-10-13T18:14:33;17.30;99.90
13268;DHT22;6702;47.068;15.458;2022-10-13T18:17:37;17.30;99.90
13268;DHT22;6702;47.068;15.458;2022-10-13T18:20:43;17.20;99.90
13268;DHT22;6702;47.068;15.458;2022-10-13T18:23:47;17.10;99.90
13268;DHT22;6702;47.068;15.458;2022-10-13T18:26:52;17.10;99.90
13268;DHT22;6702;47.068;15.458;2022-10-13T18:29:57;17.00;99.90
13268;DHT22;6702;47.068;15.458;2022-10-13T18:33:01;16.90;99.90
13268;DHT22;6702;47.068;15.458;2022-10-13T18:36:15;16.90;99.90
13268;DHT22;6702;47.068;15.458;2022-10-13T18:39:22;16.90;99.90
13268;DHT22;6702;47.068;15.458;2022-10-13T18:42:29;16.80;99.90
13268;DHT22;6702;47.068;15.458;2022-10-13T18:45:34;16.80;99.90
13268;DHT22;6702;47.068;15.458;2022-10-13T18:48:38;16.80;99.90
13268;DHT22;6702;47.068;15.458;2022-10-13T18:51:48;16.80;99.90
13268;DHT22;6702;47.068;15.458;2022-10-13T18:54:52;16.80;99.90
13268;DHT22;6702;47.068;15.458;2022-10-13T18:57:58;16.80;99.90
13268;DHT22;6702;47.068;15.458;2022-10-13T19:01:04;16.70;99.90
13268;DHT22;6702;47.068;15.458;2022-10-13T19:04:09;16.70;99.90
13268;DHT22;6702;47.068;15.458;2022-10-13T19:07:19;16.70;99.90
13268;DHT22;6702;47.068;15.458;2022-10-13T19:10:24;16.60;99.90
13268;DHT22;6702;47.068;15.458;2022-10-13T19:13:28;16.60;99.90
13268;DHT22;6702;47.068;15.458;2022-10-13T19:16:37;16.60;99.90
13268;DHT22;6702;47.068;15.458;2022-10-13T19:19:44;16.60;99.90
13268;DHT22;6702;47.068;15.458;2022-10-13T19:22:50;16.50;99.90
13268;DHT22;6702;47.068;15.458;2022-10-13T19:25:57;16.50;99.90
13268;DHT22;6702;47.068;15.458;2022-10-13T19:29:04;16.50;99.90
13268;DHT22;6702;47.068;15.458;2022-10-13T19:32:09;16.40;99.90
13268;DHT22;6702;47.068;15.458;2022-10-13T19:35:14;16.40;99.90
13268;DHT22;6702;47.068;15.458;2022-10-13T19:38:20;16.30;99.90
13268;DHT22;6702;47.068;15.458;2022-10-13T19:41:26;16.30;99.90